Ellettsville, IN

12:50 PM EST on January 24, 2017 (GMT -0500)
W. Ellettsville | | Change Station
Active Advisory: Flood Warning

Elev 741 ft 39.24 °N, 86.63 °W | Updated 13 seconds ago

Overcast
Overcast
42.0 °F
Feels Like 42 °F
N
0.0
Wind Variable Wind from North
Gusts 0.0 mph

Today
High -- | Low -- °F
--% Chance of Precip.
Yesterday
High -- | Low -- °F
Precip. -- in
Pressure 29.91 in
Visibility 10.0 miles
Clouds Overcast 2000 ft
Windchill 42 °F
Dew Point 40 °F
Humidity 93%
Rainfall 0.00 in
Snow Depth Not available.
7:59 AM 5:58 PM
Waning Crescent, 10% visible
METAR KBMG 241653Z 00000KT 10SM OVC020 05/00 A2990 RMK AO2 SLP129 T00500000
Pressure 29.91 in
Visibility 10.0 miles
Clouds Overcast 2000 ft
Windchill 42 °F
Dew Point 40 °F
Humidity 93%
Rainfall 0.00 in
Snow Depth Not available.
7:59 AM 5:58 PM
Waning Crescent, 10% visible
METAR KBMG 241653Z 00000KT 10SM OVC020 05/00 A2990 RMK AO2 SLP129 T00500000

Get Your Daily Forecast Email!

Thanks for signing up!

Be on the lookout for a verification email in your inbox.

You'll start receiving the daily forecast at 8 AM.

×

10-Day Weather Forecast

Almanac

Astronomy

Jan. 24, 2017 Rise Set
Actual Time
Civil Twilight
Nautical Twilight
Astronomical Twilight
Moon
Length of Visible Light
Length of Day
Tomorrow will be .
, % of the Moon is Illuminated

Today's Extremes

State Highs State Lows

Community

WunderPhotos

Upload Photos

1,962,540 photos uploaded!

WunderBlog® & News

Nearby

Air Quality

  Air Quality AQ Index Pollutant
Not available.

Snow Depth

Station Depth Elevation

Earthquake Activity

City Distance Mag. Time & Date
Minimum magnitude displayed is 2.5.

Coastal Water Temperatures

Place Temperature

Stations

Nearby Weather Stations

Station Location Temp. Windchill Dew Point Humidity Wind Precip. Elev Updated Type
                   

Watches & Warnings

Flood Warning
Issued: 11:31 AM EST Jan. 24, 2017 – National Weather Service

The Flood Warning continues for
the White River at Spencer.
* Until late tonight.
* At 10:30 am Tuesday the stage was 14.9 feet.
* Flood stage is 14.0 feet.
* Minor flooding is occurring and minor flooding is forecast.
* At 15.5 feet... Gosport Road, also known as County line Road in Owen
County, begins to flood on north side of river. Romona Road west
of Gosport begins to flood. Flooding of low agricultural land is
noticeable.


Lat... Lon 3936 8666 3933 8674 3913 8696 3911 8692
      3928 8675 3934 8665